Time;durP1;ratioP1;P1;durP2;ratioP2;P2;SDS_P1;SDS_P2;PMS_P1;PMS_P2;Temp;Humidity;BMP_temperature;BMP_pressure;BME280_temperature;BME280_humidity;BME280_pressure;Samples;Min_cycle;Max_cycle;Signal;HPM_P1;HPM_P2
2021/03/31 00:02:15;;;;;;;54.42;28.85;;;;;;;7.71;100.00;100222.98;4182211;84;28559;-93
2021/03/31 00:08:17;;;;;;;44.13;26.20;;;;;;;7.51;100.00;100213.33;4257512;82;28552;-91
2021/03/31 00:14:19;;;;;;;44.25;25.12;;;;;;;7.28;100.00;100220.86;4162142;84;28588;-93
2021/03/31 00:20:22;;;;;;;36.38;21.40;;;;;;;7.24;100.00;100213.73;4169910;84;28551;-92
2021/03/31 00:26:25;;;;;;;47.43;24.12;;;;;;;7.14;100.00;100206.45;4164182;84;28957;-93
2021/03/31 00:32:27;;;;;;;51.28;26.68;;;;;;;7.13;100.00;100213.31;4171103;84;28557;-93
2021/03/31 00:38:29;;;;;;;55.28;29.98;;;;;;;7.30;100.00;100205.48;4168042;84;28628;-93
2021/03/31 00:44:31;;;;;;;47.50;26.55;;;;;;;7.35;100.00;100200.93;4168619;84;28923;-92
2021/03/31 00:50:33;;;;;;;42.08;24.57;;;;;;;7.05;100.00;100192.30;4187486;84;28584;-89
2021/03/31 00:56:35;;;;;;;40.03;23.15;;;;;;;6.76;100.00;100203.72;4182274;84;28545;-91
2021/03/31 01:02:40;;;;;;;44.33;26.07;;;;;;;6.74;100.00;100200.40;4306379;81;28635;-90
2021/03/31 01:08:42;;;;;;;46.08;23.90;;;;;;;6.92;100.00;100198.23;4157638;84;28631;-90
2021/03/31 01:15:14;;;;;;;55.73;29.72;;;;;;;6.87;100.00;100196.63;4210934;84;28553;-90
2021/03/31 01:21:40;;;;;;;42.27;24.90;;;;;;;6.91;100.00;100192.57;4226250;84;28604;-89
2021/03/31 01:28:12;;;;;;;49.80;26.75;;;;;;;6.65;100.00;100192.42;4195781;84;28558;-88
2021/03/31 01:34:44;;;;;;;45.55;24.98;;;;;;;6.52;100.00;100188.98;4282284;82;28555;-88
2021/03/31 01:41:10;;;;;;;44.45;25.62;;;;;;;6.49;100.00;100188.50;4273599;82;28553;-89
2021/03/31 01:47:14;;;;;;;34.90;21.45;;;;;;;6.62;100.00;100193.28;4255284;82;28554;-86
2021/03/31 01:53:18;;;;;;;36.60;22.52;;;;;;;6.46;100.00;100201.73;4262349;82;28608;-86
2021/03/31 01:59:22;;;;;;;46.13;27.50;;;;;;;6.26;100.00;100196.82;4262701;82;28620;-86
2021/03/31 02:05:25;;;;;;;38.78;23.32;;;;;;;6.25;100.00;100193.83;4255231;82;28546;-86
2021/03/31 02:11:31;;;;;;;41.10;23.25;;;;;;;6.06;100.00;100195.57;4260548;82;47633;-86
2021/03/31 02:17:35;;;;;;;40.98;22.87;;;;;;;6.17;100.00;100191.67;4261999;82;28572;-88
2021/03/31 02:23:39;;;;;;;40.52;22.87;;;;;;;6.25;100.00;100187.14;4262673;82;28550;-86
2021/03/31 02:29:47;;;;;;;48.95;25.57;;;;;;;6.16;100.00;100183.33;4262596;82;28566;-86
2021/03/31 02:35:49;;;;;;;45.25;25.30;;;;;;;6.26;100.00;100175.45;4255958;83;28646;-86
2021/03/31 02:41:55;;;;;;;46.77;26.37;;;;;;;6.00;100.00;100179.71;4235426;82;28556;-85
2021/03/31 02:48:01;;;;;;;45.88;24.47;;;;;;;6.08;100.00;100174.34;4240217;84;28642;-86
2021/03/31 02:54:06;;;;;;;41.00;23.03;;;;;;;5.97;100.00;100179.55;4240856;84;28615;-85
2021/03/31 03:00:12;;;;;;;43.43;23.90;;;;;;;6.07;100.00;100174.02;4193338;83;28582;-86
2021/03/31 03:06:14;;;;;;;46.70;24.40;;;;;;;6.10;100.00;100172.84;4239037;84;28653;-85
2021/03/31 03:12:17;;;;;;;43.35;24.65;;;;;;;6.34;100.00;100170.56;4234061;82;28564;-86
2021/03/31 03:18:20;;;;;;;45.15;26.85;;;;;;;6.29;100.00;100172.91;4236122;83;28541;-86
2021/03/31 03:24:24;;;;;;;42.20;24.23;;;;;;;6.18;100.00;100173.30;4232523;83;28607;-86
2021/03/31 03:30:27;;;;;;;41.58;24.07;;;;;;;5.81;100.00;100167.09;4237202;83;28582;-85
2021/03/31 03:36:29;;;;;;;39.83;22.98;;;;;;;5.89;100.00;100162.74;4250537;82;28581;-86
2021/03/31 03:42:31;;;;;;;38.15;21.57;;;;;;;6.01;100.00;100164.02;4267330;82;28574;-84
2021/03/31 03:48:35;;;;;;;37.15;22.25;;;;;;;5.95;100.00;100166.03;4258972;82;28552;-86
2021/03/31 03:54:38;;;;;;;44.80;26.35;;;;;;;5.96;100.00;100162.36;4259610;84;28619;-86
2021/03/31 04:00:40;;;;;;;38.13;23.45;;;;;;;5.93;100.00;100162.19;4259508;82;28595;-86
2021/03/31 04:06:42;;;;;;;43.02;24.43;;;;;;;5.56;100.00;100164.47;4247807;82;28605;-87
2021/03/31 04:12:46;;;;;;;40.03;22.58;;;;;;;5.74;100.00;100162.10;4259226;82;28571;-88
2021/03/31 04:18:49;;;;;;;36.13;22.35;;;;;;;5.78;100.00;100154.59;4257999;82;28548;-87
2021/03/31 04:24:51;;;;;;;40.88;23.85;;;;;;;5.58;100.00;100157.16;4258982;82;28586;-87
2021/03/31 04:30:56;;;;;;;40.85;24.40;;;;;;;5.67;100.00;100155.78;4258804;82;28564;-87
2021/03/31 04:36:58;;;;;;;46.45;26.57;;;;;;;5.52;100.00;100151.64;4255780;82;28584;-86
2021/03/31 04:43:01;;;;;;;36.93;21.95;;;;;;;5.57;100.00;100155.50;4224038;82;28584;-89
2021/03/31 04:49:03;;;;;;;36.98;22.52;;;;;;;5.57;100.00;100150.16;4192976;83;28635;-88
2021/03/31 04:55:06;;;;;;;38.35;22.82;;;;;;;5.81;100.00;100147.08;4212482;84;28599;-85
2021/03/31 05:01:09;;;;;;;37.60;22.87;;;;;;;5.69;100.00;100148.45;4201574;84;28561;-84
2021/03/31 05:07:11;;;;;;;44.93;26.17;;;;;;;5.63;100.00;100153.13;4205575;83;28660;-83
2021/03/31 05:13:14;;;;;;;43.65;25.08;;;;;;;5.97;100.00;100152.85;4228348;83;28577;-82
2021/03/31 05:19:16;;;;;;;38.05;21.75;;;;;;;6.06;100.00;100145.66;4238688;82;28606;-84
2021/03/31 05:25:19;;;;;;;40.00;22.58;;;;;;;6.10;100.00;100155.49;4230389;83;28597;-83
2021/03/31 05:31:21;;;;;;;43.35;26.73;;;;;;;6.31;100.00;100150.05;4223769;83;28626;-84
2021/03/31 05:37:23;;;;;;;47.88;28.10;;;;;;;6.66;100.00;100162.51;4243291;82;28606;-84
2021/03/31 05:43:26;;;;;;;45.38;27.62;;;;;;;6.86;100.00;100152.68;4242444;82;28557;-85
2021/03/31 05:49:30;;;;;;;47.10;25.92;;;;;;;7.00;100.00;100154.59;4257254;82;28593;-83
2021/03/31 05:55:32;;;;;;;43.55;24.55;;;;;;;7.24;100.00;100148.69;4259481;82;28588;-84
2021/03/31 06:01:39;;;;;;;40.48;22.98;;;;;;;7.53;100.00;100145.20;4258253;82;28566;-85
2021/03/31 06:07:43;;;;;;;42.58;25.23;;;;;;;7.91;100.00;100141.63;4251836;82;28572;-84
2021/03/31 06:13:57;;;;;;;38.13;23.87;;;;;;;8.27;100.00;100139.14;4258924;82;28635;-85
2021/03/31 06:19:59;;;;;;;38.78;22.52;;;;;;;8.64;100.00;100139.95;4253684;83;28599;-84
2021/03/31 06:26:29;;;;;;;33.98;20.10;;;;;;;8.90;100.00;100141.25;4249424;82;28610;-84
2021/03/31 06:32:37;;;;;;;31.00;19.92;;;;;;;9.16;100.00;100136.61;4278151;82;28560;-83
2021/03/31 06:38:48;;;;;;;31.33;17.82;;;;;;;9.53;100.00;100135.61;4253688;82;29035;-84
2021/03/31 06:45:10;;;;;;;33.53;20.02;;;;;;;9.88;100.00;100139.11;4253582;82;28583;-84
2021/03/31 06:51:29;;;;;;;38.98;20.97;;;;;;;10.22;100.00;100145.16;4246944;82;28639;-85
2021/03/31 06:57:34;;;;;;;43.23;23.77;;;;;;;10.45;100.00;100142.97;4256022;82;28540;-85
2021/03/31 07:03:37;;;;;;;32.53;19.55;;;;;;;10.66;100.00;100144.34;4253362;82;28640;-84
2021/03/31 07:09:41;;;;;;;37.55;21.77;;;;;;;10.87;100.00;100147.38;4224109;82;28626;-85
2021/03/31 07:15:43;;;;;;;35.03;20.50;;;;;;;11.11;100.00;100128.45;4252760;82;28566;-86
2021/03/31 07:21:45;;;;;;;35.17;18.27;;;;;;;11.32;100.00;100118.50;4252649;82;28574;-84
2021/03/31 07:27:50;;;;;;;29.55;16.60;;;;;;;11.53;100.00;100110.67;4253106;82;28590;-84
2021/03/31 07:34:18;;;;;;;33.10;17.32;;;;;;;11.81;100.00;100109.56;4250861;82;28572;-84
2021/03/31 07:40:20;;;;;;;29.45;17.85;;;;;;;12.06;100.00;100116.13;4218022;82;28689;-84
2021/03/31 07:46:33;;;;;;;33.10;17.98;;;;;;;12.30;100.00;100116.42;4199981;84;28552;-84
2021/03/31 07:52:58;;;;;;;28.77;17.15;;;;;;;12.51;100.00;100112.58;4200606;84;28635;-84
2021/03/31 07:59:08;;;;;;;35.10;18.23;;;;;;;12.73;100.00;100104.94;4205470;84;28583;-85
2021/03/31 08:05:11;;;;;;;34.75;20.50;;;;;;;12.94;100.00;100112.34;4238271;83;28922;-84
2021/03/31 08:11:16;;;;;;;31.48;17.55;;;;;;;13.09;100.00;100103.41;4226410;83;28575;-81
2021/03/31 08:17:19;;;;;;;35.57;20.53;;;;;;;13.30;100.00;100103.20;4166577;83;28595;-81
2021/03/31 08:23:48;;;;;;;31.75;18.55;;;;;;;13.58;100.00;100089.22;4218140;83;28548;-80
2021/03/31 08:29:55;;;;;;;37.20;20.40;;;;;;;13.82;100.00;100085.33;4220378;83;28615;-81
2021/03/31 08:35:58;;;;;;;34.83;19.07;;;;;;;13.94;100.00;100075.39;4083744;86;28592;-81
2021/03/31 08:42:03;;;;;;;34.38;18.87;;;;;;;14.18;100.00;100079.53;4234764;82;28769;-81
2021/03/31 08:48:06;;;;;;;33.92;19.25;;;;;;;14.32;100.00;100072.61;4247451;82;28583;-80
2021/03/31 08:54:09;;;;;;;34.80;19.65;;;;;;;14.55;100.00;100075.07;4233564;82;28674;-80
2021/03/31 09:00:13;;;;;;;41.02;20.62;;;;;;;14.75;100.00;100068.00;4240144;82;28560;-82
2021/03/31 09:06:19;;;;;;;35.43;19.50;;;;;;;14.91;100.00;100055.66;4241546;82;28559;-81
2021/03/31 09:12:25;;;;;;;34.70;19.32;;;;;;;15.02;100.00;100045.90;4253752;82;28623;-80
2021/03/31 09:18:29;;;;;;;31.00;18.40;;;;;;;15.16;100.00;100037.00;4241203;82;28615;-81
2021/03/31 09:24:32;;;;;;;33.53;18.75;;;;;;;15.39;100.00;100031.25;4238274;82;28589;-82
2021/03/31 09:30:38;;;;;;;32.17;18.25;;;;;;;15.53;100.00;100026.40;4252788;82;28560;-81
2021/03/31 09:36:42;;;;;;;28.57;16.75;;;;;;;15.72;100.00;100022.97;4247748;82;28552;-80
2021/03/31 09:42:59;;;;;;;30.43;16.05;;;;;;;15.89;100.00;100014.37;4248534;82;28602;-81
2021/03/31 09:49:01;;;;;;;26.73;15.50;;;;;;;16.07;100.00;100007.66;4249823;82;28555;-81
2021/03/31 09:55:08;;;;;;;30.92;16.75;;;;;;;16.19;100.00;100008.41;4244783;82;28563;-83
2021/03/31 10:01:15;;;;;;;27.20;16.50;;;;;;;16.34;100.00;100005.66;4236489;82;28556;-84
2021/03/31 10:07:20;;;;;;;28.20;16.27;;;;;;;16.47;100.00;100003.99;4242312;82;28595;-86
2021/03/31 10:13:24;;;;;;;28.07;16.25;;;;;;;16.58;100.00;99990.87;4236596;82;28546;-85
2021/03/31 10:19:27;;;;;;;22.40;12.60;;;;;;;16.68;100.00;99994.27;4246582;82;28618;-82
2021/03/31 10:25:31;;;;;;;19.20;11.80;;;;;;;16.85;100.00;99990.16;4201939;83;28552;-85
2021/03/31 10:31:44;;;;;;;13.33;7.83;;;;;;;16.94;100.00;99985.67;4103175;85;28633;-85
2021/03/31 10:38:02;;;;;;;18.12;9.15;;;;;;;17.05;100.00;99975.25;4093077;85;28626;-86
2021/03/31 10:57:11;;;;;;;15.98;9.20;;;;;;;17.52;100.00;99954.09;4584202;76;85381;-86
2021/03/31 11:03:09;;;;;;;13.15;8.03;;;;;;;17.72;100.00;99944.52;4474586;77;28597;-86
2021/03/31 11:09:12;;;;;;;15.00;8.65;;;;;;;17.82;100.00;99937.26;4508510;77;28622;-86
2021/03/31 11:15:19;;;;;;;15.75;8.93;;;;;;;17.86;100.00;99934.02;4497819;77;28569;-86
2021/03/31 11:27:36;;;;;;;13.60;7.17;;;;;;;17.98;100.00;99909.66;4493121;77;28574;-86
2021/03/31 11:33:40;;;;;;;14.20;7.83;;;;;;;18.13;100.00;99912.80;4496573;77;28613;-86
2021/03/31 11:39:46;;;;;;;12.47;8.10;;;;;;;18.09;100.00;99909.24;4547411;76;28559;-87
2021/03/31 11:45:48;;;;;;;8.75;5.10;;;;;;;18.23;100.00;99888.38;4503621;77;28543;-87
2021/03/31 11:51:50;;;;;;;7.60;4.92;;;;;;;18.43;100.00;99883.62;4524268;77;28601;-85
2021/03/31 11:57:52;;;;;;;10.63;5.47;;;;;;;18.44;100.00;99871.66;4477724;78;28572;-85
2021/03/31 12:03:55;;;;;;;7.40;4.33;;;;;;;18.46;100.00;99867.28;4529878;76;28590;-85
2021/03/31 12:09:57;;;;;;;8.90;4.15;;;;;;;18.56;100.00;99859.17;4504439;77;28590;-85
2021/03/31 12:15:59;;;;;;;6.37;3.52;;;;;;;18.79;97.89;99855.20;4498336;77;28929;-85
2021/03/31 12:22:02;;;;;;;6.65;3.60;;;;;;;18.80;97.25;99837.77;4420444;80;28586;-85
2021/03/31 12:28:05;;;;;;;7.00;3.37;;;;;;;18.81;93.95;99826.34;4321296;81;28579;-90
2021/03/31 12:34:09;;;;;;;5.95;2.90;;;;;;;18.80;91.78;99811.09;4343684;80;28599;-88
2021/03/31 12:40:12;;;;;;;4.90;3.02;;;;;;;18.83;91.06;99805.10;4431452;80;28555;-88
2021/03/31 12:46:14;;;;;;;3.55;1.87;;;;;;;18.97;89.95;99797.77;4366737;80;28550;-89
2021/03/31 12:52:24;;;;;;;3.52;2.00;;;;;;;18.94;89.04;99783.61;4351489;80;28617;-85
2021/03/31 12:58:22;;;;;;;4.65;2.30;;;;;;;18.98;88.35;99777.61;4363033;80;28579;-87
2021/03/31 13:04:25;;;;;;;7.87;3.20;;;;;;;18.95;83.19;99768.89;4349049;80;28587;-87
2021/03/31 13:10:28;;;;;;;4.92;2.58;;;;;;;19.05;83.84;99759.13;4374778;80;28585;-85
2021/03/31 13:29:25;;;;;;;4.45;2.62;;;;;;;19.48;74.90;99743.34;4616773;76;85193;-90
2021/03/31 13:35:23;;;;;;;8.50;4.17;;;;;;;19.49;77.89;99736.00;4488534;78;28602;-84
2021/03/31 13:41:22;;;;;;;4.47;2.55;;;;;;;19.57;70.14;99733.26;4513621;78;50276;-88
2021/03/31 13:47:27;;;;;;;6.20;3.95;;;;;;;19.66;69.13;99720.70;4501405;78;28554;-88
2021/03/31 13:53:30;;;;;;;8.73;5.22;;;;;;;19.68;68.42;99710.86;4483368;78;28555;-85
2021/03/31 13:59:34;;;;;;;6.80;4.10;;;;;;;19.69;67.26;99696.95;4510640;78;28676;-87
2021/03/31 14:05:37;;;;;;;8.53;4.08;;;;;;;19.69;66.81;99690.70;4491883;78;28574;-87
2021/03/31 14:11:46;;;;;;;8.23;4.40;;;;;;;19.63;65.47;99678.42;4509322;78;28564;-84
2021/03/31 14:17:50;;;;;;;;;;;;;;;19.60;65.34;99674.89;4504076;78;28566;-86
2021/03/31 14:23:52;;;;;;;8.73;4.60;;;;;;;19.57;62.86;99671.33;4497886;77;20465;-86
2021/03/31 14:29:55;;;;;;;6.75;4.33;;;;;;;19.67;62.97;99660.96;4503375;78;28634;-85
2021/03/31 14:35:58;;;;;;;6.15;4.15;;;;;;;19.65;64.34;99649.52;4505115;78;28666;-84
2021/03/31 14:42:04;;;;;;;6.90;3.25;;;;;;;19.67;63.54;99643.23;4490856;78;28544;-86
2021/03/31 14:48:07;;;;;;;7.15;3.10;;;;;;;19.69;61.62;99640.23;4500664;78;28536;-85
2021/03/31 15:00:35;;;;;;;8.63;4.30;;;;;;;19.73;62.12;99624.41;4307536;81;28644;-86
2021/03/31 15:06:39;;;;;;;7.05;4.08;;;;;;;19.72;62.19;99615.92;4310597;81;28559;-86
2021/03/31 15:12:43;;;;;;;9.45;4.72;;;;;;;19.68;62.71;99605.31;4387033;80;28548;-86
2021/03/31 15:18:46;;;;;;;5.92;4.22;;;;;;;19.73;60.36;99593.57;4374118;80;28569;-84
2021/03/31 15:24:53;;;;;;;9.25;3.98;;;;;;;19.71;60.50;99595.20;4388266;80;28699;-86
2021/03/31 15:30:57;;;;;;;8.50;3.98;;;;;;;19.68;61.62;99584.86;4385474;80;28635;-86
2021/03/31 15:37:02;;;;;;;7.67;3.62;;;;;;;19.63;61.62;99573.98;4377417;80;28595;-86
2021/03/31 15:43:04;;;;;;;6.42;3.85;;;;;;;19.61;59.55;99570.69;4378610;80;28645;-87
2021/03/31 15:49:07;;;;;;;7.25;3.90;;;;;;;19.54;59.57;99568.27;4388833;80;28596;-86
2021/03/31 15:55:11;;;;;;;7.00;3.10;;;;;;;19.46;60.94;99561.48;4359980;80;28633;-85
2021/03/31 16:01:13;;;;;;;6.35;3.15;;;;;;;19.38;61.02;99555.79;4378553;80;28574;-84
2021/03/31 16:07:34;;;;;;;6.15;3.25;;;;;;;19.34;60.66;99554.96;4389999;80;28581;-85
2021/03/31 16:13:37;;;;;;;8.43;3.30;;;;;;;19.26;61.71;99548.70;4358832;80;28598;-87
2021/03/31 16:19:41;;;;;;;5.40;3.10;;;;;;;19.23;61.02;99546.55;4369657;81;28625;-88
2021/03/31 16:25:43;;;;;;;5.67;3.22;;;;;;;19.18;61.79;99537.83;4355435;80;28587;-91
2021/03/31 16:31:46;;;;;;;4.72;2.85;;;;;;;19.02;61.94;99533.52;4336765;81;28621;-90
2021/03/31 16:37:48;;;;;;;5.62;3.12;;;;;;;18.91;62.15;99533.51;4319328;81;28625;-89
2021/03/31 16:43:50;;;;;;;6.78;2.75;;;;;;;18.78;63.04;99524.52;4394510;79;28589;-87
2021/03/31 16:49:53;;;;;;;5.70;2.90;;;;;;;18.61;63.06;99525.62;4394022;79;28599;-88
2021/03/31 16:55:55;;;;;;;7.67;3.22;;;;;;;18.46;63.68;99519.64;4392630;80;28617;-81
2021/03/31 17:01:57;;;;;;;6.12;2.90;;;;;;;18.25;64.09;99505.19;4334580;81;28552;-84
2021/03/31 17:08:00;;;;;;;5.42;2.67;;;;;;;18.03;64.83;99506.25;4393867;80;28645;-83
2021/03/31 17:14:02;;;;;;;3.80;2.35;;;;;;;17.81;65.29;99509.98;4399867;80;28642;-82
2021/03/31 17:20:06;;;;;;;6.70;2.75;;;;;;;17.60;65.96;99507.75;4399076;80;28633;-84
2021/03/31 17:26:09;;;;;;;7.58;3.15;;;;;;;17.35;67.12;99508.47;4389382;79;28634;-86
2021/03/31 17:32:11;;;;;;;8.40;3.80;;;;;;;17.16;67.71;99502.64;4376919;81;28593;-88
2021/03/31 17:38:13;;;;;;;5.33;3.25;;;;;;;16.94;68.66;99505.77;4387269;80;28550;-87
2021/03/31 17:44:16;;;;;;;9.00;3.27;;;;;;;16.60;70.85;99503.34;4349999;81;28626;-87
2021/03/31 17:50:20;;;;;;;8.60;3.37;;;;;;;16.41;71.28;99498.33;4356670;81;28587;-87
2021/03/31 17:56:22;;;;;;;7.72;3.98;;;;;;;16.16;72.93;99497.56;4367518;80;28598;-86
2021/03/31 18:02:24;;;;;;;10.00;3.60;;;;;;;15.92;74.39;99501.11;4361110;80;28601;-88
2021/03/31 18:08:27;;;;;;;9.85;3.83;;;;;;;15.65;76.30;99501.86;4369715;80;28548;-89
2021/03/31 18:14:29;;;;;;;12.70;4.30;;;;;;;15.45;79.61;99499.19;4372368;80;28570;-91
2021/03/31 18:20:31;;;;;;;8.75;3.67;;;;;;;15.10;82.87;99494.44;4363247;81;28559;-83
2021/03/31 18:26:33;;;;;;;10.00;4.10;;;;;;;14.99;81.04;99491.27;4376583;81;28607;-84
2021/03/31 18:32:37;;;;;;;10.00;4.15;;;;;;;14.82;83.33;99498.91;4366722;80;28638;-81
2021/03/31 18:38:40;;;;;;;9.78;3.60;;;;;;;14.62;84.06;99491.25;4360545;81;28539;-82
2021/03/31 18:44:42;;;;;;;12.30;4.58;;;;;;;14.40;87.10;99493.34;4374726;81;28572;-83
2021/03/31 18:50:45;;;;;;;9.83;4.65;;;;;;;14.31;88.79;99485.34;4363371;80;28608;-82
2021/03/31 18:56:50;;;;;;;11.75;5.28;;;;;;;14.13;89.33;99485.88;4360042;80;28648;-83
2021/03/31 19:02:56;;;;;;;13.13;5.58;;;;;;;14.11;88.74;99485.82;4358483;81;28577;-84
2021/03/31 19:15:19;;;;;;;35.43;8.48;;;;;;;14.08;89.91;99480.36;4367291;81;28614;-83
2021/03/31 19:21:28;;;;;;;19.80;8.18;;;;;;;14.03;98.68;99482.44;4371314;80;28565;-82
2021/03/31 19:27:32;;;;;;;21.48;7.22;;;;;;;13.96;100.00;99487.20;4375811;80;28598;-81
2021/03/31 19:33:35;;;;;;;24.10;7.72;;;;;;;13.84;100.00;99480.48;4413138;80;28621;-89
2021/03/31 19:39:39;;;;;;;28.77;8.45;;;;;;;13.65;100.00;99476.62;4395033;80;28620;-88
2021/03/31 19:45:49;;;;;;;22.55;8.35;;;;;;;13.59;100.00;99471.36;4396759;80;28593;-87
2021/03/31 19:51:54;;;;;;;22.25;8.40;;;;;;;13.42;100.00;99469.38;4390048;80;28575;-88
2021/03/31 19:57:56;;;;;;;21.27;8.20;;;;;;;13.43;100.00;99465.61;4416357;79;29154;-88
2021/03/31 20:04:01;;;;;;;19.27;7.47;;;;;;;13.21;100.00;99463.55;4383898;80;28597;-87
2021/03/31 20:10:10;;;;;;;18.55;7.90;;;;;;;13.15;100.00;99455.59;4396225;80;28574;-87
2021/03/31 20:16:15;;;;;;;21.70;7.55;;;;;;;13.02;100.00;99458.03;4375331;80;28559;-88
2021/03/31 20:22:17;;;;;;;19.60;7.00;;;;;;;12.86;100.00;99460.38;4319388;80;28575;-87
2021/03/31 20:28:20;;;;;;;16.20;6.67;;;;;;;12.72;100.00;99459.00;4315620;80;28599;-88
2021/03/31 20:34:24;;;;;;;17.50;6.35;;;;;;;12.69;100.00;99455.69;4366352;80;28554;-86
2021/03/31 20:40:27;;;;;;;19.95;6.92;;;;;;;12.72;100.00;99447.66;4367608;80;28573;-85
2021/03/31 20:46:30;;;;;;;18.95;7.50;;;;;;;12.66;100.00;99444.57;4373427;81;28571;-89
2021/03/31 20:52:32;;;;;;;21.82;7.70;;;;;;;12.37;100.00;99445.78;4352813;81;29133;-86
2021/03/31 20:58:34;;;;;;;17.02;7.72;;;;;;;12.13;100.00;99441.17;4357680;80;28596;-87
2021/03/31 21:04:38;;;;;;;16.70;8.08;;;;;;;12.02;100.00;99433.88;4355663;80;28559;-87
2021/03/31 21:10:41;;;;;;;17.92;8.55;;;;;;;11.86;100.00;99429.41;4367343;80;28630;-87
2021/03/31 21:16:44;;;;;;;21.40;8.20;;;;;;;11.86;100.00;99419.17;4365495;80;28579;-91
2021/03/31 21:22:46;;;;;;;22.73;9.15;;;;;;;11.76;100.00;99419.70;4362457;80;28717;-91
2021/03/31 21:28:48;;;;;;;21.12;9.08;;;;;;;11.61;100.00;99412.08;4359416;80;28697;-88
2021/03/31 21:34:51;;;;;;;23.35;9.43;;;;;;;11.46;100.00;99408.45;4373669;80;28946;-88
2021/03/31 21:40:53;;;;;;;20.45;9.63;;;;;;;11.27;100.00;99410.33;4396337;80;28578;-87
2021/03/31 21:46:55;;;;;;;29.07;11.80;;;;;;;11.26;100.00;99414.91;4400940;80;28948;-90
2021/03/31 21:52:58;;;;;;;26.65;12.93;;;;;;;11.42;100.00;99419.35;4398950;80;28644;-87
2021/03/31 21:59:00;;;;;;;27.48;13.55;;;;;;;11.27;100.00;99415.20;4396517;80;28596;-84
2021/03/31 22:05:03;;;;;;;31.12;13.80;;;;;;;11.18;100.00;99416.55;4392878;80;28559;-83
2021/03/31 22:11:08;;;;;;;29.00;13.43;;;;;;;11.22;100.00;99415.58;4387241;79;28574;-84
2021/03/31 22:17:12;;;;;;;31.15;13.35;;;;;;;11.13;100.00;99409.16;4394665;80;28541;-85
2021/03/31 22:23:15;;;;;;;29.98;14.30;;;;;;;11.10;100.00;99405.58;4404931;80;28924;-87
2021/03/31 22:29:17;;;;;;;35.10;16.85;;;;;;;10.97;100.00;99409.75;4407336;80;28626;-87
2021/03/31 22:35:23;;;;;;;34.50;16.37;;;;;;;11.04;100.00;99399.74;4393115;80;28539;-89
2021/03/31 22:41:26;;;;;;;;;;;;;;;10.83;100.00;99398.31;4412673;80;29011;-89
2021/03/31 22:47:28;;;;;;;31.10;15.58;;;;;;;10.83;100.00;99403.19;4390119;80;20548;-88
2021/03/31 22:59:47;;;;;;;32.78;16.57;;;;;;;10.79;100.00;99388.55;4367744;79;86029;-89
2021/03/31 23:05:49;;;;;;;29.50;14.93;;;;;;;10.60;100.00;99385.84;4313081;81;28584;-89
2021/03/31 23:11:51;;;;;;;29.70;14.93;;;;;;;10.53;100.00;99382.94;4351141;80;28620;-87
2021/03/31 23:17:53;;;;;;;29.48;14.05;;;;;;;10.51;100.00;99380.96;4329436;80;28647;-88
2021/03/31 23:23:56;;;;;;;29.12;14.83;;;;;;;10.61;100.00;99374.55;4324564;80;28567;-87
2021/03/31 23:29:59;;;;;;;34.20;15.45;;;;;;;10.44;100.00;99365.73;4318487;81;28554;-87
2021/03/31 23:36:01;;;;;;;27.48;14.70;;;;;;;10.27;100.00;99362.77;4308301;81;28599;-88
2021/03/31 23:42:05;;;;;;;27.52;14.13;;;;;;;10.24;100.00;99359.70;4333263;81;28544;-87
2021/03/31 23:48:09;;;;;;;30.40;14.98;;;;;;;10.11;100.00;99354.75;4319835;80;28587;-86
2021/03/31 23:54:11;;;;;;;30.17;15.43;;;;;;;10.15;100.00;99351.08;4345156;80;28645;-86
